Hutchinson County Airport - Borger, Texas, United States - FAA: BGD - ICAO: KBGD - IATA: BGD

 
  Longest Runway: 6,300 feet   Approach Types:    Customs Landing Rights Airport: No   Port of Entry: No

Local Forecast

Today (12/13): Sunny, with a high near 65. Wind chill values between 27 and 37 early. West southwest wind 10 to 15 mph becoming north northeast 15 to 20 mph in the morning. Winds could gust as high as 25 mph.

Tonight (12/13): Increasing clouds, with a low around 32. North wind around 5 mph.

Thursday (12/14): Mostly cloudy, with a high near 45. Wind chill values between 26 and 36 early. North wind 5 to 15 mph.

Thursday Night (12/14): Mostly cloudy during the early evening, then gradual clearing, with a low around 27. Wind chill values between 20 and 25. North northwest wind 5 to 10 mph.

Friday (12/15): Sunny, with a high near 57. West southwest wind 5 to 15 mph.

Friday Night (12/15): Clear, with a low around 34. Southwest wind 10 to 15 mph.

Saturday (12/16): Sunny, with a high near 61. Southwest wind 10 to 20 mph, with gusts as high as 25 mph.



Current Weather (METAR)

2017/12/13 11:51 KBGD 131151Z AUTO 25012KT 10SM CLR 05/M13 A2998 RMK AO2 SLP144 T00501128 10078 20050 56018

BORGER HUTCHINSON CO AIRPORT , TX, United States (KBGD) 35-42N 101-24W 927M Dec 13, 2017 - 06:51 AM EST / 2017.12.13 1151 UTC Wind: from the WSW (250 degrees) at 14 MPH (12 KT):0 Visibility: 10 mile(s):0 Sky conditions: clear Temperature: 41.0 F (5.0 C) Dew Point: 9.0 F (-12.8 C) Relative Humidity: 26% Pressure (altimeter): 29.98 in. Hg (1015 hPa) Pressure tendency: 0.05 inches (1.8 hPa) lower than three hours ago ob: KBGD 131151Z AUTO 25012KT 10SM CLR 05/M13 A2998 RMK AO2 SLP144 T00501128 10078 20050 56018 cycle: 12

Terminal Forecast (TAF)